createdAt,value
2018-08-18T00:00:32.093Z,15.39
2018-08-18T00:03:01.851Z,15.32
2018-08-18T00:05:31.641Z,15.22
2018-08-18T00:08:01.352Z,15.20
2018-08-18T00:10:31.031Z,15.21
2018-08-18T00:13:00.649Z,15.24
2018-08-18T00:15:30.411Z,15.24
2018-08-18T00:18:00.352Z,15.20
2018-08-18T00:20:29.883Z,15.20
2018-08-18T00:23:00.283Z,15.12
2018-08-18T00:25:30.210Z,15.07
2018-08-18T00:28:09.180Z,15.03
2018-08-18T00:30:40.083Z,14.96
2018-08-18T00:33:09.950Z,14.92
2018-08-18T00:35:39.452Z,15.05
2018-08-18T00:38:08.826Z,14.99
2018-08-18T00:40:38.448Z,14.93
2018-08-18T00:43:08.490Z,14.85
2018-08-18T00:45:38.316Z,14.95
2018-08-18T00:48:08.074Z,14.95
2018-08-18T00:50:43.299Z,14.96
2018-08-18T00:53:15.074Z,14.95
2018-08-18T00:55:45.122Z,14.83
2018-08-18T00:59:18.766Z,14.80
2018-08-18T01:01:48.516Z,14.85
2018-08-18T01:04:17.991Z,14.78
2018-08-18T01:06:47.504Z,14.80
2018-08-18T01:09:17.250Z,14.74
2018-08-18T01:11:52.222Z,14.78
2018-08-18T01:17:26.945Z,15.10
2018-08-18T01:20:01.884Z,15.08
2018-08-18T01:22:31.831Z,14.90
2018-08-18T01:25:01.704Z,14.82
2018-08-18T01:38:05.998Z,14.69
2018-08-18T01:40:36.087Z,14.78
2018-08-18T01:43:05.706Z,14.73
2018-08-18T01:45:35.440Z,14.78
2018-08-18T01:51:02.350Z,15.05
2018-08-18T01:53:31.988Z,15.09
2018-08-18T01:56:01.823Z,14.89
2018-08-18T01:58:38.010Z,14.73
2018-08-18T02:04:01.169Z,14.56
2018-08-18T02:06:31.010Z,14.46
2018-08-18T02:09:01.200Z,14.48
2018-08-18T02:11:30.983Z,14.41
2018-08-18T02:14:02.978Z,14.37
2018-08-18T02:16:33.310Z,14.31
2018-08-18T02:19:06.322Z,14.31
2018-08-18T02:21:37.244Z,14.43
2018-08-18T02:24:07.562Z,14.50
2018-08-18T02:26:37.961Z,14.53
2018-08-18T02:29:07.824Z,14.45
2018-08-18T02:31:37.934Z,14.34
2018-08-18T02:40:34.962Z,14.15
2018-08-18T02:43:13.991Z,14.13
2018-08-18T02:45:43.544Z,14.13
2018-08-18T02:48:16.647Z,14.16
2018-08-18T02:50:49.465Z,14.16
2018-08-18T02:53:27.125Z,14.17
2018-08-18T02:55:57.407Z,14.22
2018-08-18T02:58:26.945Z,14.09
2018-08-18T03:00:56.379Z,14.06
2018-08-18T03:03:25.847Z,14.02
2018-08-18T03:05:59.179Z,14.06
2018-08-18T03:08:29.267Z,13.95
2018-08-18T03:10:58.744Z,13.94
2018-08-18T03:13:28.393Z,13.99
2018-08-18T03:15:59.407Z,13.95
2018-08-18T03:18:43.904Z,13.82
2018-08-18T03:21:13.672Z,13.79
2018-08-18T03:23:53.653Z,13.77
2018-08-18T03:26:45.813Z,13.71
2018-08-18T03:29:16.399Z,13.71
2018-08-18T03:31:46.667Z,13.76
2018-08-18T03:34:16.544Z,13.79
2018-08-18T03:36:48.366Z,13.78
2018-08-18T03:39:35.095Z,13.82
2018-08-18T03:42:05.544Z,13.95
2018-08-18T03:44:41.338Z,14.00
2018-08-18T03:47:10.787Z,13.83
2018-08-18T03:49:40.159Z,13.68
2018-08-18T03:52:09.653Z,13.61
2018-08-18T03:54:39.098Z,13.67
2018-08-18T03:57:08.539Z,13.71
2018-08-18T03:59:37.984Z,13.74
2018-08-18T04:02:07.377Z,13.77
2018-08-18T04:04:37.999Z,13.75
2018-08-18T04:07:08.941Z,13.77
2018-08-18T04:09:39.993Z,13.79
2018-08-18T04:12:11.294Z,13.71
2018-08-18T04:14:43.259Z,13.76
2018-08-18T04:17:24.416Z,13.77
2018-08-18T04:19:53.974Z,13.82
2018-08-18T04:22:24.394Z,13.83
2018-08-18T04:24:53.884Z,13.92
2018-08-18T04:27:37.665Z,13.95
2018-08-18T04:30:10.480Z,13.97
2018-08-18T04:32:50.474Z,14.01
2018-08-18T04:35:23.671Z,14.01
2018-08-18T04:37:54.363Z,14.12
2018-08-18T04:40:24.623Z,14.20
2018-08-18T04:42:57.022Z,14.28
2018-08-18T04:48:45.191Z,14.46
2018-08-18T04:54:19.444Z,14.62
2018-08-18T04:56:48.910Z,14.67
2018-08-18T04:59:38.223Z,14.74
2018-08-18T05:02:07.847Z,14.84
2018-08-18T05:04:37.231Z,14.89
2018-08-18T05:07:06.764Z,14.94
2018-08-18T05:09:38.644Z,14.99
2018-08-18T05:12:08.164Z,15.10
2018-08-18T05:14:37.664Z,15.20
2018-08-18T05:17:07.345Z,15.32
2018-08-18T05:19:43.125Z,15.60
2018-08-18T05:22:12.645Z,15.99
2018-08-18T05:24:42.054Z,16.30
2018-08-18T05:29:34.684Z,16.60
2018-08-18T05:32:04.552Z,17.12
2018-08-18T05:34:33.924Z,17.45
2018-08-18T05:37:03.445Z,17.79
2018-08-18T05:39:32.872Z,18.03
2018-08-18T05:42:02.992Z,18.15
2018-08-18T05:44:32.704Z,18.43
2018-08-18T05:47:02.144Z,18.72
2018-08-18T05:49:31.693Z,19.22
2018-08-18T05:52:01.204Z,19.42
2018-08-18T05:54:30.543Z,19.61
2018-08-18T05:56:59.991Z,19.89
2018-08-18T05:59:29.364Z,20.10
2018-08-18T06:02:07.104Z,20.52
2018-08-18T06:04:36.644Z,20.72
2018-08-18T06:07:12.065Z,21.09
2018-08-18T06:09:41.491Z,21.59
2018-08-18T06:12:16.144Z,21.80
2018-08-18T06:14:48.543Z,21.60
2018-08-18T06:17:22.885Z,21.59
2018-08-18T06:19:52.404Z,21.65
2018-08-18T06:22:21.924Z,21.71
2018-08-18T06:24:51.543Z,21.74
2018-08-18T06:27:22.884Z,21.67
2018-08-18T06:29:52.346Z,21.60
2018-08-18T06:32:21.803Z,21.72
2018-08-18T06:34:51.385Z,21.76
2018-08-18T06:37:20.804Z,22.13
2018-08-18T06:39:56.024Z,22.64
2018-08-18T06:42:34.944Z,22.66
2018-08-18T06:45:05.025Z,22.69
2018-08-18T06:47:34.644Z,22.35
2018-08-18T06:50:04.304Z,22.85
2018-08-18T06:52:33.865Z,23.08
2018-08-18T06:55:03.469Z,23.33
2018-08-18T06:57:41.066Z,23.64
2018-08-18T07:00:13.286Z,23.97
2018-08-18T07:02:42.957Z,24.46
2018-08-18T07:05:14.585Z,24.39
2018-08-18T07:07:44.847Z,24.35
2018-08-18T07:10:26.138Z,24.50
2018-08-18T07:12:57.257Z,24.79
2018-08-18T07:15:28.828Z,24.77
2018-08-18T07:17:58.474Z,25.02
2018-08-18T07:20:28.106Z,25.21
2018-08-18T07:22:57.736Z,25.43
2018-08-18T07:25:27.303Z,25.74
2018-08-18T07:28:01.874Z,25.80
2018-08-18T07:30:32.243Z,25.77
2018-08-18T07:33:02.359Z,26.22
2018-08-18T07:35:31.848Z,26.53
2018-08-18T07:38:01.252Z,26.78
2018-08-18T07:40:40.103Z,27.20
2018-08-18T07:43:10.129Z,27.48
2018-08-18T07:45:39.599Z,27.28
2018-08-18T07:48:09.636Z,27.44
2018-08-18T07:50:39.082Z,27.70
2018-08-18T07:53:09.595Z,27.83
2018-08-18T07:55:39.012Z,27.76
2018-08-18T07:58:14.145Z,27.97
2018-08-18T08:00:44.145Z,28.33
2018-08-18T08:03:15.141Z,28.80
2018-08-18T08:05:44.768Z,29.25
2018-08-18T08:08:14.352Z,29.33
2018-08-18T08:10:43.803Z,29.18
2018-08-18T08:13:14.814Z,28.98
2018-08-18T08:15:44.396Z,29.34
2018-08-18T08:18:15.769Z,29.43
2018-08-18T08:20:45.323Z,29.32
2018-08-18T08:23:14.976Z,29.09
2018-08-18T08:25:44.449Z,29.10
2018-08-18T08:28:14.165Z,29.88
2018-08-18T08:30:43.585Z,29.85
2018-08-18T08:33:23.200Z,29.66
2018-08-18T08:35:52.762Z,30.18
2018-08-18T08:38:22.302Z,30.43
2018-08-18T08:40:52.102Z,30.65
2018-08-18T08:43:35.683Z,31.08
2018-08-18T08:46:05.283Z,30.30
2018-08-18T08:48:34.662Z,29.70
2018-08-18T08:51:04.244Z,29.53
2018-08-18T08:53:33.861Z,29.85
2018-08-18T08:56:03.920Z,30.27
2018-08-18T08:58:35.204Z,30.36
2018-08-18T09:01:05.362Z,29.78
2018-08-18T09:03:34.801Z,29.23
2018-08-18T09:06:04.161Z,29.34
2018-08-18T09:08:33.700Z,29.66
2018-08-18T09:11:03.460Z,29.99
2018-08-18T09:13:33.003Z,30.02
2018-08-18T09:16:02.640Z,30.09
2018-08-18T09:18:32.385Z,30.46
2018-08-18T09:21:02.561Z,30.44
2018-08-18T09:23:36.126Z,30.01
2018-08-18T09:26:05.767Z,29.93
2018-08-18T09:28:35.401Z,29.77
2018-08-18T09:31:04.887Z,29.63
2018-08-18T09:33:34.559Z,29.91
2018-08-18T09:36:06.173Z,30.34
2018-08-18T09:38:35.827Z,30.76
2018-08-18T09:41:05.362Z,30.65
2018-08-18T09:43:35.202Z,30.05
2018-08-18T09:46:04.629Z,30.23
2018-08-18T09:48:34.320Z,29.43
2018-08-18T09:51:03.727Z,29.42
2018-08-18T09:53:33.260Z,30.27
2018-08-18T09:56:02.707Z,30.26
2018-08-18T09:58:32.240Z,30.57
2018-08-18T10:01:01.620Z,31.15
2018-08-18T10:03:31.227Z,30.90
2018-08-18T10:06:00.699Z,30.84
2018-08-18T10:08:30.200Z,30.43
2018-08-18T10:10:59.680Z,30.98
2018-08-18T10:13:29.358Z,31.16
2018-08-18T10:15:58.779Z,31.01
2018-08-18T10:18:33.438Z,30.70
2018-08-18T10:21:02.867Z,30.50
2018-08-18T10:23:32.278Z,30.32
2018-08-18T10:26:01.747Z,30.20
2018-08-18T10:28:31.182Z,30.42
2018-08-18T10:31:00.541Z,30.35
2018-08-18T10:33:30.039Z,30.15
2018-08-18T10:35:59.418Z,30.13
2018-08-18T10:38:28.859Z,30.30
2018-08-18T10:40:58.619Z,30.22
2018-08-18T10:43:28.101Z,30.07
2018-08-18T10:45:57.519Z,30.77
2018-08-18T10:48:27.359Z,30.59
2018-08-18T10:51:32.242Z,30.24
2018-08-18T10:54:03.283Z,30.76
2018-08-18T10:56:32.704Z,30.93
2018-08-18T10:59:15.867Z,30.89
2018-08-18T11:02:01.990Z,31.35
2018-08-18T11:04:33.779Z,31.62
2018-08-18T11:07:03.610Z,31.01
2018-08-18T11:09:33.787Z,30.04
2018-08-18T11:12:04.080Z,29.89
2018-08-18T11:14:33.520Z,30.25
2018-08-18T11:17:03.122Z,30.82
2018-08-18T11:19:32.780Z,31.16
2018-08-18T11:22:13.020Z,31.10
2018-08-18T11:24:42.439Z,31.69
2018-08-18T11:27:12.059Z,31.67
2018-08-18T11:29:41.419Z,31.81
2018-08-18T11:32:10.960Z,32.05
2018-08-18T11:34:40.380Z,32.55
2018-08-18T11:37:09.960Z,32.08
2018-08-18T11:39:39.359Z,31.75
2018-08-18T11:42:08.784Z,31.73
2018-08-18T11:44:38.140Z,30.86
2018-08-18T11:47:07.673Z,31.08
2018-08-18T11:49:37.131Z,31.41
2018-08-18T11:52:06.690Z,31.35
2018-08-18T11:54:36.184Z,31.03
2018-08-18T11:57:05.744Z,30.58
2018-08-18T11:59:35.126Z,31.19
2018-08-18T12:02:04.783Z,31.88
2018-08-18T12:04:34.338Z,32.43
2018-08-18T12:07:03.990Z,32.36
2018-08-18T12:09:33.619Z,31.93
2018-08-18T12:12:04.870Z,31.13
2018-08-18T12:14:34.505Z,30.64
2018-08-18T12:17:05.040Z,30.98
2018-08-18T12:19:34.724Z,31.04
2018-08-18T12:22:05.274Z,30.85
2018-08-18T12:24:34.659Z,31.13
2018-08-18T12:27:13.852Z,31.34
2018-08-18T12:29:43.424Z,31.21
2018-08-18T12:32:18.747Z,30.86
2018-08-18T12:34:48.087Z,31.15
2018-08-18T12:37:17.729Z,31.35
2018-08-18T12:39:47.266Z,31.03
2018-08-18T12:42:21.679Z,30.90
2018-08-18T12:44:51.171Z,31.15
2018-08-18T12:47:20.712Z,31.25
2018-08-18T12:49:50.178Z,31.46
2018-08-18T12:52:19.761Z,31.27
2018-08-18T12:54:49.260Z,31.31
2018-08-18T12:57:29.514Z,31.22
2018-08-18T12:59:58.891Z,31.16
2018-08-18T13:02:38.016Z,31.09
2018-08-18T13:05:07.608Z,30.55
2018-08-18T13:07:41.225Z,30.79
2018-08-18T13:10:18.789Z,30.80
2018-08-18T13:12:48.443Z,30.69
2018-08-18T13:15:18.292Z,31.17
2018-08-18T13:17:47.970Z,31.15
2018-08-18T13:20:22.461Z,31.29
2018-08-18T13:22:51.900Z,31.43
2018-08-18T13:25:21.661Z,32.01
2018-08-18T13:27:54.217Z,31.41
2018-08-18T13:30:24.389Z,31.38
2018-08-18T13:32:56.708Z,31.30
2018-08-18T13:35:26.166Z,31.24
2018-08-18T13:37:56.129Z,32.02
2018-08-18T13:40:28.141Z,31.89
2018-08-18T13:42:57.693Z,31.33
2018-08-18T13:45:43.304Z,31.27
2018-08-18T13:48:13.699Z,31.34
2018-08-18T13:50:43.206Z,31.28
2018-08-18T13:53:12.727Z,31.67
2018-08-18T13:55:42.746Z,32.12
2018-08-18T13:58:13.314Z,31.59
2018-08-18T14:00:42.953Z,31.51
2018-08-18T14:03:24.280Z,31.81
2018-08-18T14:05:55.262Z,31.79
2018-08-18T14:08:24.923Z,31.78
2018-08-18T14:10:54.498Z,31.83
2018-08-18T14:13:24.233Z,32.22
2018-08-18T14:15:58.615Z,31.86
2018-08-18T14:18:28.231Z,31.79
2018-08-18T14:21:06.126Z,31.74
2018-08-18T14:23:35.710Z,31.73
2018-08-18T14:26:05.166Z,31.28
2018-08-18T14:28:35.011Z,31.75
2018-08-18T14:31:04.426Z,31.44
2018-08-18T14:33:33.989Z,31.64
2018-08-18T14:36:08.727Z,31.72
2018-08-18T14:38:38.186Z,31.69
2018-08-18T14:41:08.349Z,31.98
2018-08-18T14:43:40.219Z,31.49
2018-08-18T14:46:11.598Z,31.71
2018-08-18T14:48:41.206Z,31.54
2018-08-18T14:51:10.886Z,31.86
2018-08-18T14:53:43.447Z,31.80
2018-08-18T14:56:12.845Z,32.14
2018-08-18T14:58:44.512Z,31.93
2018-08-18T15:01:14.981Z,31.55
2018-08-18T15:03:44.562Z,31.71
2018-08-18T15:06:14.321Z,31.58
2018-08-18T15:08:43.994Z,31.69
2018-08-18T15:11:13.357Z,31.56
2018-08-18T15:13:43.079Z,31.76
2018-08-18T15:16:12.425Z,31.87
2018-08-18T15:18:42.004Z,32.28
2018-08-18T15:21:11.563Z,31.74
2018-08-18T15:23:41.201Z,31.47
2018-08-18T15:26:10.786Z,31.87
2018-08-18T15:28:40.339Z,32.00
2018-08-18T15:31:09.819Z,32.04
2018-08-18T15:33:39.286Z,32.42
2018-08-18T15:36:18.315Z,32.70
2018-08-18T15:38:48.150Z,32.45
2018-08-18T15:41:17.709Z,32.12
2018-08-18T15:43:47.429Z,32.03
2018-08-18T15:46:17.032Z,31.96
2018-08-18T15:48:46.606Z,32.25
2018-08-18T15:51:15.957Z,32.35
2018-08-18T15:53:50.491Z,32.55
2018-08-18T15:56:20.730Z,32.37
2018-08-18T15:58:51.184Z,32.11
2018-08-18T16:01:24.024Z,31.81
2018-08-18T16:03:54.325Z,31.72
2018-08-18T16:06:23.827Z,31.94
2018-08-18T16:08:54.009Z,31.54
2018-08-18T16:11:23.822Z,31.73
2018-08-18T16:13:53.473Z,31.56
2018-08-18T16:16:23.069Z,31.47
2018-08-18T16:19:04.185Z,31.53
2018-08-18T16:21:34.865Z,31.29
2018-08-18T16:24:04.497Z,31.24
2018-08-18T16:26:34.007Z,31.02
2018-08-18T16:29:03.748Z,31.20
2018-08-18T16:31:33.205Z,31.48
2018-08-18T16:34:02.758Z,30.35
2018-08-18T16:36:51.112Z,30.22
2018-08-18T16:39:20.726Z,29.83
2018-08-18T16:41:50.134Z,29.56
2018-08-18T16:44:19.924Z,29.23
2018-08-18T16:46:49.349Z,29.05
2018-08-18T16:49:18.886Z,28.56
2018-08-18T16:51:52.373Z,27.89
2018-08-18T16:54:23.523Z,27.34
2018-08-18T16:56:53.070Z,26.43
2018-08-18T16:59:22.688Z,25.80
2018-08-18T17:01:52.113Z,25.21
2018-08-18T17:04:26.755Z,24.35
2018-08-18T17:06:56.673Z,24.12
2018-08-18T17:09:33.849Z,24.04
2018-08-18T17:12:14.399Z,23.98
2018-08-18T17:14:44.097Z,23.93
2018-08-18T17:17:13.834Z,23.78
2018-08-18T17:19:43.458Z,23.77
2018-08-18T17:22:14.376Z,23.56
2018-08-18T17:24:44.124Z,23.40
2018-08-18T17:27:14.107Z,23.12
2018-08-18T17:29:45.357Z,22.70
2018-08-18T17:32:15.382Z,22.41
2018-08-18T17:34:45.088Z,22.29
2018-08-18T17:37:15.094Z,22.00
2018-08-18T17:39:45.038Z,21.85
2018-08-18T17:42:16.505Z,21.64
2018-08-18T17:44:47.145Z,21.42
2018-08-18T17:47:18.157Z,21.39
2018-08-18T17:49:55.504Z,21.42
2018-08-18T17:52:28.372Z,21.16
2018-08-18T17:55:12.575Z,21.27
2018-08-18T17:57:45.686Z,21.21
2018-08-18T18:00:18.085Z,20.96
2018-08-18T18:02:53.758Z,20.58
2018-08-18T18:05:25.321Z,20.63
2018-08-18T18:08:01.828Z,20.60
2018-08-18T18:10:34.237Z,20.42
2018-08-18T18:13:11.717Z,20.38
2018-08-18T18:15:43.458Z,20.17
2018-08-18T18:18:17.037Z,19.98
2018-08-18T18:20:54.059Z,20.02
2018-08-18T18:23:25.961Z,19.89
2018-08-18T18:25:56.396Z,19.77
2018-08-18T18:28:26.321Z,19.52
2018-08-18T18:30:56.086Z,19.37
2018-08-18T18:33:26.998Z,19.20
2018-08-18T18:35:57.935Z,19.14
2018-08-18T18:38:29.303Z,19.19
2018-08-18T18:41:00.589Z,19.22
2018-08-18T18:43:31.369Z,19.20
2018-08-18T18:46:02.955Z,19.21
2018-08-18T18:48:34.018Z,18.99
2018-08-18T18:51:05.359Z,18.79
2018-08-18T18:53:54.472Z,18.82
2018-08-18T18:56:25.079Z,18.80
2018-08-18T18:59:02.202Z,18.79
2018-08-18T19:01:35.419Z,18.85
2018-08-18T19:04:06.442Z,18.83
2018-08-18T19:06:46.519Z,18.91
2018-08-18T19:09:18.817Z,18.95
2018-08-18T19:11:50.399Z,18.97
2018-08-18T19:14:25.688Z,18.94
2018-08-18T19:16:56.707Z,18.75
2018-08-18T19:19:27.773Z,18.62
2018-08-18T19:21:59.919Z,18.51
2018-08-18T19:24:31.082Z,18.40
2018-08-18T19:27:03.459Z,18.15
2018-08-18T19:29:35.754Z,18.03
2018-08-18T19:32:10.001Z,18.02
2018-08-18T19:34:41.141Z,17.88
2018-08-18T19:37:15.157Z,17.93
2018-08-18T19:39:45.697Z,17.92
2018-08-18T19:42:19.706Z,17.90
2018-08-18T19:44:51.300Z,17.85
2018-08-18T19:47:36.412Z,17.87
2018-08-18T19:50:09.310Z,17.86
2018-08-18T19:52:39.757Z,17.95
2018-08-18T19:55:12.420Z,17.89
2018-08-18T19:57:45.707Z,17.87
2018-08-18T20:00:22.108Z,17.80
2018-08-18T20:02:58.676Z,17.59
2018-08-18T20:05:28.348Z,17.61
2018-08-18T20:07:58.218Z,17.60
2018-08-18T20:10:27.954Z,17.64
2018-08-18T20:12:57.697Z,17.71
2018-08-18T20:15:27.569Z,17.65
2018-08-18T20:17:57.490Z,17.57
2018-08-18T20:20:27.368Z,17.45
2018-08-18T20:22:57.238Z,17.35
2018-08-18T20:25:27.330Z,17.13
2018-08-18T20:27:57.268Z,17.25
2018-08-18T20:30:27.019Z,17.20
2018-08-18T20:32:57.058Z,17.18
2018-08-18T20:35:28.359Z,17.18
2018-08-18T20:37:58.252Z,17.16
2018-08-18T20:40:29.195Z,17.14
2018-08-18T20:42:59.132Z,17.08
2018-08-18T20:45:35.311Z,16.94
2018-08-18T20:48:05.591Z,16.79
2018-08-18T20:50:35.584Z,16.67
2018-08-18T20:53:14.474Z,16.68
2018-08-18T20:55:46.337Z,16.69
2018-08-18T20:58:16.352Z,16.63
2018-08-18T21:00:46.171Z,16.65
2018-08-18T21:03:16.216Z,16.63
2018-08-18T21:05:46.038Z,16.57
2018-08-18T21:08:20.995Z,16.44
2018-08-18T21:10:50.978Z,16.27
2018-08-18T21:13:20.767Z,16.17
2018-08-18T21:15:50.578Z,16.17
2018-08-18T21:18:21.158Z,16.19
2018-08-18T21:20:50.990Z,16.18
2018-08-18T21:23:24.343Z,16.17
2018-08-18T21:25:54.952Z,16.20
2018-08-18T21:28:27.579Z,16.24
2018-08-18T21:30:57.352Z,16.25
2018-08-18T21:33:27.311Z,16.23
2018-08-18T21:35:56.970Z,16.09
2018-08-18T21:38:27.081Z,15.90
2018-08-18T21:40:57.047Z,15.84
2018-08-18T21:43:34.180Z,15.90
2018-08-18T21:46:04.009Z,15.90
2018-08-18T21:48:51.967Z,15.85
2018-08-18T21:51:27.453Z,15.91
2018-08-18T21:53:57.206Z,16.07
2018-08-18T21:56:27.069Z,16.12
2018-08-18T21:58:57.071Z,16.13
2018-08-18T22:01:26.855Z,16.12
2018-08-18T22:03:56.814Z,15.91
2018-08-18T22:06:26.610Z,15.87
2018-08-18T22:09:10.587Z,15.83
2018-08-18T22:11:40.365Z,15.86
2018-08-18T22:14:12.675Z,15.87
2018-08-18T22:16:58.012Z,15.82
2018-08-18T22:19:29.295Z,15.80
2018-08-18T22:21:59.141Z,15.69
2018-08-18T22:24:29.001Z,15.68
2018-08-18T22:26:58.784Z,15.69
2018-08-18T22:29:28.775Z,15.65
2018-08-18T22:31:58.531Z,15.61
2018-08-18T22:34:28.251Z,15.54
2018-08-18T22:37:03.555Z,15.49
2018-08-18T22:39:33.237Z,15.45
2018-08-18T22:42:03.175Z,15.47
2018-08-18T22:44:32.946Z,15.44
2018-08-18T22:47:04.928Z,15.44
2018-08-18T22:49:34.686Z,15.36
2018-08-18T22:52:04.604Z,15.30
2018-08-18T22:54:34.478Z,15.24
2018-08-18T22:57:05.396Z,15.27
2018-08-18T22:59:35.114Z,15.34
2018-08-18T23:02:04.846Z,15.40
2018-08-18T23:04:36.906Z,15.53
2018-08-18T23:07:07.819Z,15.49
2018-08-18T23:09:37.689Z,15.35
2018-08-18T23:12:08.506Z,15.28
2018-08-18T23:14:39.456Z,15.26
2018-08-18T23:17:10.690Z,15.28
2018-08-18T23:19:40.612Z,15.29
2018-08-18T23:22:19.769Z,15.25
2018-08-18T23:24:49.686Z,15.23
2018-08-18T23:27:19.233Z,15.17
2018-08-18T23:29:48.935Z,15.13
2018-08-18T23:32:23.542Z,15.13
2018-08-18T23:34:56.732Z,15.15
2018-08-18T23:37:26.526Z,15.20
2018-08-18T23:39:57.525Z,15.22
2018-08-18T23:42:27.925Z,15.26
2018-08-18T23:44:57.701Z,15.23
2018-08-18T23:47:27.322Z,15.12
2018-08-18T23:49:57.044Z,15.03
2018-08-18T23:52:26.967Z,15.03
2018-08-18T23:54:56.731Z,15.00
2018-08-18T23:57:26.356Z,14.94
2018-08-18T23:59:56.308Z,14.89
